Talisman — LAOW5 — position and weather

sailwx.info

Track history (hours):
 
Tides and Currents Weather Stations Pressure Air Temp Water Temp Dewpoint Dewpoint Depression Visibility Wind Speed Wind Dir Waves Ship Positions

Talisman

Last reported at 2018-Feb-18 09:21 UTC. Time now 2018-Feb-19 00:09 UTC.
Position S 27°17' E 153°45'.

Type: Ship. MMSI: 257613000.

Date/timePositionNaut miles runAvg speedWind from/ knotsBaromVisibWave heightAir tempDewpointWater temp
2018-Feb-18 09:21S 27°17' E 153°45'514.1
2018-Feb-18 08:59S 27°22' E 153°47'613.2
2018-Feb-18 08:30S 27°28' E 153°50'713.2
2018-Feb-18 08:00S 27°32' E 153°56'1012.7
2018-Feb-18 07:15S 27°38' E 154°05'312.7
2018-Feb-18 07:00S 27°40' E 154°08'612.5
2018-Feb-18 06:30S 27°44' E 154°13'712.9
2018-Feb-18 05:55S 27°48' E 154°20'  
2018-Feb-15 08:46S 36°14' E 174°59'3 9.7
2018-Feb-15 08:30S 36°17' E 174°59'5 9.7
2018-Feb-15 08:00S 36°22' E 174°60'5 9.7
2018-Feb-15 07:30S 36°27' E 174°60'5 9.6
2018-Feb-15 07:00S 36°31' E 174°59'5 9.7
2018-Feb-15 06:30S 36°36' E 174°58'5 9.5
2018-Feb-15 06:00S 36°40' E 174°55'5 9.6
2018-Feb-15 05:30S 36°44' E 174°51'5 9.9
2018-Feb-15 05:00S 36°48' E 174°49'3 6.4
2018-Feb-15 04:30S 36°50' E 174°46'0 0.1
2018-Feb-15 03:55S 36°50' E 174°46'0 0.0
2018-Feb-15 03:25S 36°50' E 174°46'0 0.0
2018-Feb-15 02:55S 36°50' E 174°46'0 0.0
2018-Feb-15 02:25S 36°50' E 174°46'0 0.0
2018-Feb-15 01:55S 36°50' E 174°46'0 0.0
2018-Feb-15 01:25S 36°50' E 174°46'0 0.0
2018-Feb-15 00:55S 36°50' E 174°46'0 0.0
2018-Feb-15 00:25S 36°50' E 174°46'0 0.0
2018-Feb-14 23:55S 36°50' E 174°46'0 0.0
2018-Feb-14 23:25S 36°50' E 174°46'0 0.0
2018-Feb-14 22:55S 36°50' E 174°46'0 0.0
2018-Feb-14 22:25S 36°50' E 174°46'0 0.0
2018-Feb-14 21:55S 36°50' E 174°46'0 0.0
2018-Feb-14 21:25S 36°50' E 174°46'0 0.0
2018-Feb-14 20:55S 36°50' E 174°46'0 0.0
2018-Feb-14 20:19S 36°50' E 174°46'0 0.0
2018-Feb-14 19:55S 36°50' E 174°46'0 0.0
2018-Feb-14 19:25S 36°50' E 174°46'0 0.0
2018-Feb-14 18:55S 36°50' E 174°46'0 0.0
2018-Feb-14 18:25S 36°50' E 174°46'0 0.0
2018-Feb-14 17:55S 36°50' E 174°46'0 0.0
2018-Feb-14 17:23S 36°50' E 174°46'0 0.5
2018-Feb-14 17:01S 36°50' E 174°46'3 5.6
2018-Feb-14 16:30S 36°50' E 174°50'510.3
2018-Feb-14 16:00S 36°44' E 174°50'4 8.4
2018-Feb-14 15:30S 36°41' E 174°54'5 9.1
2018-Feb-14 15:00S 36°38' E 174°57'5 9.7
2018-Feb-14 14:30S 36°35' E 175°02'5 9.9
2018-Feb-14 14:00S 36°31' E 175°06'5 9.8
2018-Feb-14 13:30S 36°27' E 175°11'5 9.9
2018-Feb-14 13:00S 36°24' E 175°15'  
Track history (hours):
 
Tides and Currents Weather Stations Pressure Air Temp Water Temp Dewpoint Dewpoint Depression Visibility Wind Speed Wind Dir Waves Ship Positions

Talisman

Last reported at 2018-Feb-18 09:21 UTC. Time now 2018-Feb-19 00:09 UTC.
Position S 27°17' E 153°45'.

Type: Ship. MMSI: 257613000.

Date/timePositionNaut miles runAvg speedWind from/ knotsBaromVisibWave heightAir tempDewpointWater temp
2018-Feb-18 09:21S 27°17' E 153°45'514.1
2018-Feb-18 08:59S 27°22' E 153°47'613.2
2018-Feb-18 08:30S 27°28' E 153°50'713.2
2018-Feb-18 08:00S 27°32' E 153°56'1012.7
2018-Feb-18 07:15S 27°38' E 154°05'312.7
2018-Feb-18 07:00S 27°40' E 154°08'612.5
2018-Feb-18 06:30S 27°44' E 154°13'712.9
2018-Feb-18 05:55S 27°48' E 154°20'  
2018-Feb-15 08:46S 36°14' E 174°59'3 9.7
2018-Feb-15 08:30S 36°17' E 174°59'5 9.7
2018-Feb-15 08:00S 36°22' E 174°60'5 9.7
2018-Feb-15 07:30S 36°27' E 174°60'5 9.6
2018-Feb-15 07:00S 36°31' E 174°59'5 9.7
2018-Feb-15 06:30S 36°36' E 174°58'5 9.5
2018-Feb-15 06:00S 36°40' E 174°55'5 9.6
2018-Feb-15 05:30S 36°44' E 174°51'5 9.9
2018-Feb-15 05:00S 36°48' E 174°49'3 6.4
2018-Feb-15 04:30S 36°50' E 174°46'0 0.1
2018-Feb-15 03:55S 36°50' E 174°46'0 0.0
2018-Feb-15 03:25S 36°50' E 174°46'0 0.0
2018-Feb-15 02:55S 36°50' E 174°46'0 0.0
2018-Feb-15 02:25S 36°50' E 174°46'0 0.0
2018-Feb-15 01:55S 36°50' E 174°46'0 0.0
2018-Feb-15 01:25S 36°50' E 174°46'0 0.0
2018-Feb-15 00:55S 36°50' E 174°46'0 0.0
2018-Feb-15 00:25S 36°50' E 174°46'0 0.0
2018-Feb-14 23:55S 36°50' E 174°46'0 0.0
2018-Feb-14 23:25S 36°50' E 174°46'0 0.0
2018-Feb-14 22:55S 36°50' E 174°46'0 0.0
2018-Feb-14 22:25S 36°50' E 174°46'0 0.0
2018-Feb-14 21:55S 36°50' E 174°46'0 0.0
2018-Feb-14 21:25S 36°50' E 174°46'0 0.0
2018-Feb-14 20:55S 36°50' E 174°46'0 0.0
2018-Feb-14 20:19S 36°50' E 174°46'0 0.0
2018-Feb-14 19:55S 36°50' E 174°46'0 0.0
2018-Feb-14 19:25S 36°50' E 174°46'0 0.0
2018-Feb-14 18:55S 36°50' E 174°46'0 0.0
2018-Feb-14 18:25S 36°50' E 174°46'0 0.0
2018-Feb-14 17:55S 36°50' E 174°46'0 0.0
2018-Feb-14 17:23S 36°50' E 174°46'0 0.5
2018-Feb-14 17:01S 36°50' E 174°46'3 5.6
2018-Feb-14 16:30S 36°50' E 174°50'510.3
2018-Feb-14 16:00S 36°44' E 174°50'4 8.4
2018-Feb-14 15:30S 36°41' E 174°54'5 9.1
2018-Feb-14 15:00S 36°38' E 174°57'5 9.7
2018-Feb-14 14:30S 36°35' E 175°02'5 9.9
2018-Feb-14 14:00S 36°31' E 175°06'5 9.8
2018-Feb-14 13:30S 36°27' E 175°11'5 9.9
2018-Feb-14 13:00S 36°24' E 175°15'  

Dump ship's entire track history